Terminal Aerodrome Forecast
Issued by NWS

Home | Current Version | Previous Version | Text Only | Print | Product List | Glossary On
Versions: 1 2 3 4 5 6 7 8 9 10 11 12 13 14 15
000
FTUS43 KIND 241100
TAFLAF
TAF
KLAF 241120Z 2412/2512 12004KT P6SM BKN150
     FM241500 17010G18KT P6SM BKN040
     FM242100 17012G18KT P6SM BKN040 OVC100
     FM250700 18013G18KT P6SM -SHRA OVC040
      AMD LTD TO CLD VIS AND WIND TIL 241300=

USA.gov is the U.S. government's official web portal to all federal, state and local government web resources and services.